Time;durP1;ratioP1;P1;durP2;ratioP2;P2;SDS_P1;SDS_P2;PMS_P1;PMS_P2;Temp;Humidity;BMP_temperature;BMP_pressure;BME280_temperature;BME280_humidity;BME280_pressure;Samples;Min_cycle;Max_cycle;Signal;HPM_P1;HPM_P2
2021/07/16 00:09:05;;;;;;;6.80;2.10;;;;;;;16.79;83.78;100413.19;20743562;28;20124;-72
2021/07/16 00:19:07;;;;;;;3.97;2.03;;;;;;;16.58;84.82;100410.50;20744957;28;20112;-72
2021/07/16 00:29:08;;;;;;;3.88;1.80;;;;;;;16.44;85.18;100417.25;20684243;28;20062;-72
2021/07/16 00:39:10;;;;;;;8.13;2.60;;;;;;;16.30;86.03;100441.56;20660998;28;20061;-72
2021/07/16 00:49:13;;;;;;;4.18;1.92;;;;;;;16.37;86.26;100453.59;20660869;28;20128;-72
2021/07/16 00:59:16;;;;;;;4.65;2.38;;;;;;;16.31;87.07;100457.34;20659775;28;20054;-72
2021/07/16 01:09:18;;;;;;;6.65;2.65;;;;;;;16.23;87.44;100471.75;20656081;28;20050;-72
2021/07/16 01:19:41;;;;;;;4.03;2.10;;;;;;;16.29;86.31;100484.75;20658101;28;20432;-73
2021/07/16 01:29:43;;;;;;;5.22;2.33;;;;;;;16.36;85.18;100484.47;20656236;28;20113;-72
2021/07/16 01:39:45;;;;;;;4.28;2.20;;;;;;;16.33;86.52;100489.00;20655376;28;20046;-72
2021/07/16 01:49:47;;;;;;;6.38;2.20;;;;;;;16.39;86.42;100488.78;20655294;28;20058;-73
2021/07/16 01:59:48;;;;;;;5.65;2.45;;;;;;;16.55;85.86;100489.91;20654474;28;20148;-72
2021/07/16 02:09:50;;;;;;;3.83;2.13;;;;;;;16.48;85.84;100493.72;20653501;28;20101;-73
2021/07/16 02:19:52;;;;;;;4.13;2.20;;;;;;;16.34;86.50;100504.81;20653558;28;20050;-72
2021/07/16 02:29:54;;;;;;;5.47;2.15;;;;;;;16.27;87.31;100495.38;20655779;28;20058;-73
2021/07/16 02:39:56;;;;;;;4.95;2.40;;;;;;;16.35;86.51;100488.03;20668980;28;20407;-72
2021/07/16 02:49:58;;;;;;;4.88;2.35;;;;;;;16.05;87.38;100484.75;20669046;28;20116;-73
2021/07/16 03:00:00;;;;;;;7.68;2.80;;;;;;;15.92;87.83;100483.47;20668797;28;20046;-72
2021/07/16 03:10:10;;;;;;;4.77;2.70;;;;;;;15.97;87.61;100492.09;20667339;28;20050;-73
2021/07/16 03:20:15;;;;;;;7.40;2.70;;;;;;;15.93;87.67;100494.91;20667079;28;20046;-73
2021/07/16 03:30:26;;;;;;;6.30;2.88;;;;;;;15.81;87.81;100497.09;20647924;28;20136;-73
2021/07/16 03:40:29;;;;;;;8.68;3.25;;;;;;;15.62;87.68;100502.13;20664600;28;20120;-72
2021/07/16 03:50:31;;;;;;;6.05;3.05;;;;;;;15.50;88.13;100507.81;20663583;28;20058;-72
2021/07/16 04:00:33;;;;;;;5.88;3.03;;;;;;;15.55;87.87;100526.13;20646130;28;20039;-72
2021/07/16 04:10:37;;;;;;;7.85;3.30;;;;;;;15.55;87.22;100521.69;20662097;28;21465;-72
2021/07/16 04:20:40;;;;;;;7.57;3.70;;;;;;;15.60;87.37;100530.31;20662201;28;20081;-72
2021/07/16 04:30:42;;;;;;;5.07;3.03;;;;;;;16.03;85.85;100535.91;20661290;28;20093;-73
2021/07/16 04:40:44;;;;;;;7.28;2.83;;;;;;;16.19;86.01;100544.97;20659727;28;20415;-72
2021/07/16 04:50:46;;;;;;;7.63;2.42;;;;;;;16.78;84.41;100543.72;20660333;28;20046;-72
2021/07/16 05:00:48;;;;;;;5.30;2.80;;;;;;;17.12;83.63;100544.09;20658018;28;20411;-73
2021/07/16 05:10:50;;;;;;;6.03;2.67;;;;;;;17.42;83.52;100541.09;20642183;28;20530;-72
2021/07/16 05:20:52;;;;;;;5.00;2.90;;;;;;;17.56;83.54;100537.88;20658133;28;20096;-72
2021/07/16 05:30:54;;;;;;;7.50;3.08;;;;;;;17.66;82.63;100558.59;20656887;28;20050;-72
2021/07/16 05:40:56;;;;;;;6.47;3.80;;;;;;;17.79;81.88;100560.75;20656578;28;20484;-72
2021/07/16 05:51:00;;;;;;;6.00;3.15;;;;;;;17.98;81.20;100558.19;20656881;28;20481;-72
2021/07/16 06:01:02;;;;;;;4.80;2.90;;;;;;;18.22;81.33;100585.38;20654235;28;20061;-72
2021/07/16 06:11:04;;;;;;;5.95;2.90;;;;;;;18.35;80.29;100586.53;20654456;28;20522;-72
2021/07/16 06:21:06;;;;;;;5.00;2.83;;;;;;;18.35;78.85;100583.88;20654221;28;20524;-72
2021/07/16 06:31:08;;;;;;;8.32;4.13;;;;;;;18.86;78.35;100598.38;20628806;28;20138;-71
2021/07/16 06:41:10;;;;;;;9.98;6.72;;;;;;;19.12;77.71;100615.75;20653035;28;20108;-72
2021/07/16 06:51:12;;;;;;;10.07;6.68;;;;;;;19.36;77.32;100625.19;20652297;28;20058;-71
2021/07/16 07:01:14;;;;;;;12.00;6.25;;;;;;;19.89;76.54;100613.72;20652346;28;20397;-72
2021/07/16 07:11:16;;;;;;;12.20;7.25;;;;;;;19.55;77.52;100625.16;20649952;28;20082;-71
2021/07/16 07:21:18;;;;;;;12.82;7.25;;;;;;;20.16;75.10;100634.47;20645266;28;20050;-71
2021/07/16 07:31:20;;;;;;;12.55;7.55;;;;;;;21.04;70.99;100630.72;20666224;28;20566;-72
2021/07/16 07:41:22;;;;;;;12.75;5.82;;;;;;;21.10;69.13;100636.53;20648442;28;20046;-71
2021/07/16 07:51:25;;;;;;;9.23;5.85;;;;;;;20.79;72.18;100648.00;20665864;28;20079;-72
2021/07/16 08:01:26;;;;;;;7.95;5.70;;;;;;;20.46;71.88;100645.34;20664725;28;20038;-72
2021/07/16 08:11:32;;;;;;;8.40;4.72;;;;;;;21.15;69.46;100650.47;20648272;28;20054;-72
2021/07/16 08:21:35;;;;;;;8.38;5.45;;;;;;;21.37;67.77;100643.97;20644989;28;20050;-73
2021/07/16 08:31:41;;;;;;;6.57;4.63;;;;;;;21.70;66.26;100634.03;20661846;28;20046;-73
2021/07/16 08:41:43;;;;;;;7.90;4.63;;;;;;;22.07;64.85;100629.19;20661702;28;20527;-73
2021/07/16 08:51:45;;;;;;;7.40;4.20;;;;;;;23.21;62.10;100633.72;20662254;28;20460;-73
2021/07/16 09:01:51;;;;;;;7.50;4.32;;;;;;;22.48;64.10;100639.19;20659412;28;20093;-73
2021/07/16 09:11:57;;;;;;;9.18;5.35;;;;;;;22.36;65.41;100646.13;20657552;28;20061;-73
2021/07/16 09:22:12;;;;;;;8.07;5.03;;;;;;;22.37;64.39;100646.97;20656400;28;20051;-72
2021/07/16 09:32:15;;;;;;;7.90;5.23;;;;;;;22.46;63.82;100657.09;20658421;28;20484;-72
2021/07/16 09:42:18;;;;;;;7.32;5.28;;;;;;;23.19;59.58;100644.53;20656363;28;20112;-72
2021/07/16 09:52:20;;;;;;;8.20;3.80;;;;;;;23.27;57.79;100650.22;20639716;28;20046;-72
2021/07/16 10:02:22;;;;;;;6.13;4.00;;;;;;;23.80;59.21;100648.53;20656506;28;20047;-73
2021/07/16 10:12:24;;;;;;;7.15;4.22;;;;;;;22.80;60.51;100642.53;20656937;28;20503;-71
2021/07/16 10:22:29;;;;;;;9.43;5.20;;;;;;;23.52;59.39;100643.25;20655398;28;20093;-71
2021/07/16 10:32:45;;;;;;;8.02;3.63;;;;;;;24.46;54.84;100637.84;20654829;28;20109;-72
2021/07/16 10:42:47;;;;;;;4.72;2.67;;;;;;;24.13;54.45;100633.84;20637857;28;20062;-72
2021/07/16 10:52:51;;;;;;;4.90;2.72;;;;;;;24.92;52.30;100626.56;20641334;28;20653;-71
2021/07/16 11:03:05;;;;;;;6.77;3.30;;;;;;;24.78;52.68;100644.47;20669744;28;20039;-71
2021/07/16 11:13:32;;;;;;;7.13;3.05;;;;;;;24.90;52.09;100642.72;20667577;28;20093;-72
2021/07/16 11:23:49;;;;;;;7.32;2.70;;;;;;;24.53;50.13;100652.53;20648924;28;20097;-72
2021/07/16 11:33:57;;;;;;;7.07;2.72;;;;;;;24.55;50.55;100650.59;20666014;28;20101;-72
2021/07/16 11:44:00;;;;;;;4.90;3.03;;;;;;;24.06;54.85;100664.66;20663978;28;20050;-73
2021/07/16 11:54:24;;;;;;;6.90;4.82;;;;;;;22.37;68.02;100665.66;20665472;28;20054;-72
2021/07/16 12:04:27;;;;;;;7.80;5.37;;;;;;;22.71;69.27;100662.66;20663006;28;20097;-72
2021/07/16 12:14:45;;;;;;;7.43;5.85;;;;;;;23.47;63.13;100656.06;20662323;28;20046;-72
2021/07/16 12:24:48;;;;;;;7.43;5.30;;;;;;;23.51;59.71;100641.56;20659291;28;20057;-71
2021/07/16 12:34:49;;;;;;;8.32;3.97;;;;;;;24.19;59.62;100633.41;20660163;28;20050;-72
2021/07/16 12:45:20;;;;;;;7.53;4.20;;;;;;;24.50;56.33;100631.31;20660322;28;20073;-72
2021/07/16 12:55:23;;;;;;;8.45;4.22;;;;;;;25.27;56.67;100616.84;20650667;28;20042;-72
2021/07/16 13:05:27;;;;;;;7.90;4.63;;;;;;;25.75;52.28;100613.28;20641279;28;20117;-72
2021/07/16 13:15:29;;;;;;;4.40;3.00;;;;;;;25.20;51.62;100626.31;20642710;28;20282;-71
2021/07/16 13:25:31;;;;;;;7.28;3.35;;;;;;;24.72;52.42;100620.81;20657748;28;20062;-71
2021/07/16 13:35:32;;;;;;;6.28;3.80;;;;;;;25.52;50.42;100615.88;20654228;28;20144;-72
2021/07/16 13:45:34;;;;;;;7.88;4.38;;;;;;;25.69;50.08;100595.84;20656412;28;20054;-72
2021/07/16 13:55:36;;;;;;;11.57;6.45;;;;;;;24.81;55.37;100598.72;20635416;28;20042;-71
2021/07/16 14:05:38;;;;;;;10.15;6.25;;;;;;;25.11;54.97;100613.59;20654390;28;20097;-72
2021/07/16 14:15:40;;;;;;;9.23;6.57;;;;;;;25.45;54.54;100625.34;20656014;28;20054;-72
2021/07/16 14:25:42;;;;;;;10.00;5.97;;;;;;;25.49;54.72;100620.63;20654367;28;20480;-71
2021/07/16 14:35:45;;;;;;;12.10;7.20;;;;;;;23.84;61.40;100648.34;20654466;28;20046;-71
2021/07/16 14:45:47;;;;;;;9.18;6.63;;;;;;;23.47;61.98;100656.06;20653055;28;20101;-71
2021/07/16 14:55:49;;;;;;;13.52;6.78;;;;;;;23.37;62.03;100673.66;20653820;28;20046;-71
2021/07/16 15:05:51;;;;;;;10.90;7.40;;;;;;;22.89;65.71;100667.81;20651115;28;20101;-71
2021/07/16 15:15:53;;;;;;;11.95;8.30;;;;;;;22.73;65.75;100671.44;20651516;28;20046;-71
2021/07/16 15:25:54;;;;;;;11.23;7.93;;;;;;;23.55;63.26;100659.13;20648798;28;20420;-71
2021/07/16 15:35:56;;;;;;;13.38;8.05;;;;;;;23.60;62.83;100667.69;20652732;28;20439;-70
2021/07/16 15:45:59;;;;;;;11.80;8.52;;;;;;;23.74;61.16;100680.19;20667897;28;20050;-71
2021/07/16 15:56:01;;;;;;;11.63;8.45;;;;;;;23.96;59.97;100667.09;20648327;28;20046;-71
2021/07/16 16:06:03;;;;;;;14.85;8.75;;;;;;;24.01;59.68;100666.78;20665513;28;20042;-72
2021/07/16 16:16:05;;;;;;;11.68;7.82;;;;;;;24.23;59.43;100677.72;20647825;28;20061;-73
2021/07/16 16:26:07;;;;;;;12.15;7.40;;;;;;;24.35;59.27;100677.88;20664420;28;20077;-73
2021/07/16 16:36:09;;;;;;;10.13;7.43;;;;;;;24.57;57.79;100691.50;20662406;28;20046;-72
2021/07/16 16:46:10;;;;;;;12.85;7.97;;;;;;;24.35;58.72;100702.81;20663977;28;20058;-72
2021/07/16 16:56:13;;;;;;;14.25;9.27;;;;;;;24.20;59.14;100709.22;20661705;28;20531;-72
2021/07/16 17:06:14;;;;;;;13.73;8.50;;;;;;;24.17;59.71;100715.59;20659355;28;20101;-71
2021/07/16 17:16:16;;;;;;;12.18;8.50;;;;;;;23.87;59.31;100717.66;20657038;28;20047;-71
2021/07/16 17:26:18;;;;;;;12.30;8.20;;;;;;;23.82;60.50;100701.06;20642382;28;20629;-72
2021/07/16 17:36:20;;;;;;;14.00;8.60;;;;;;;23.62;60.00;100710.34;20658610;28;20042;-72
2021/07/16 17:46:22;;;;;;;11.10;8.60;;;;;;;23.57;59.96;100710.66;20640828;28;20054;-72
2021/07/16 17:56:24;;;;;;;11.35;7.75;;;;;;;23.24;60.68;100733.25;20658097;28;20507;-71
2021/07/16 18:06:26;;;;;;;12.35;7.90;;;;;;;23.11;61.15;100734.97;20655538;28;20703;-71
2021/07/16 18:16:29;;;;;;;11.77;8.37;;;;;;;22.76;61.47;100737.97;20656483;28;20050;-70
2021/07/16 18:26:31;;;;;;;14.60;8.60;;;;;;;22.46;62.85;100738.00;20655562;28;20057;-71
2021/07/16 18:36:33;;;;;;;11.77;8.10;;;;;;;22.24;63.36;100753.59;20657053;28;20050;-72
2021/07/16 18:46:36;;;;;;;13.88;9.32;;;;;;;22.11;64.30;100753.44;20656940;28;20050;-70
2021/07/16 18:56:38;;;;;;;16.15;8.60;;;;;;;21.72;65.61;100778.72;20655482;28;20548;-71
2021/07/16 19:06:42;;;;;;;15.35;8.95;;;;;;;21.51;66.40;100782.56;20655073;28;20484;-72
2021/07/16 19:16:44;;;;;;;15.60;8.57;;;;;;;21.35;66.64;100811.00;20663532;28;20107;-72
2021/07/16 19:26:45;;;;;;;13.77;9.20;;;;;;;20.98;67.79;100818.25;20669945;28;20526;-72
2021/07/16 19:36:47;;;;;;;14.60;9.50;;;;;;;20.79;67.74;100854.72;20661768;28;20109;-72
2021/07/16 19:46:50;;;;;;;13.60;10.05;;;;;;;20.44;67.99;100855.53;20666569;28;20196;-72
2021/07/16 19:56:52;;;;;;;19.55;11.88;;;;;;;20.35;68.74;100884.38;20666782;28;20890;-72
2021/07/16 20:06:54;;;;;;;17.77;11.73;;;;;;;20.17;69.77;100889.66;20665762;28;20042;-72
2021/07/16 20:16:56;;;;;;;18.02;12.82;;;;;;;19.88;71.37;100916.72;20608808;28;20050;-72
2021/07/16 20:26:58;;;;;;;19.27;12.63;;;;;;;19.78;71.64;100916.28;20583051;28;20117;-72
2021/07/16 20:37:00;;;;;;;19.30;13.50;;;;;;;19.42;72.84;100921.44;20603789;28;20479;-71
2021/07/16 20:47:02;;;;;;;21.58;13.52;;;;;;;19.35;73.60;100931.44;20645365;28;20186;-73
2021/07/16 20:57:04;;;;;;;21.35;14.68;;;;;;;19.21;73.86;100945.34;20661205;28;20057;-72
2021/07/16 21:07:06;;;;;;;20.05;13.95;;;;;;;18.96;74.91;100944.63;20642873;28;20101;-73
2021/07/16 21:17:11;;;;;;;22.00;15.27;;;;;;;18.80;75.67;100970.94;20642176;28;20055;-72
2021/07/16 21:27:12;;;;;;;23.15;15.07;;;;;;;18.69;75.76;100974.03;20657221;28;20065;-72
2021/07/16 21:37:14;;;;;;;20.73;15.18;;;;;;;18.62;75.86;100988.44;20655732;28;20760;-72
2021/07/16 21:47:17;;;;;;;23.08;15.80;;;;;;;18.52;75.97;100992.38;20655743;28;20456;-72
2021/07/16 21:57:18;;;;;;;25.52;16.30;;;;;;;18.36;76.61;100993.91;20655157;28;20042;-72
2021/07/16 22:07:21;;;;;;;24.77;15.57;;;;;;;18.08;77.95;101002.91;20590306;28;20559;-72
2021/07/16 22:17:22;;;;;;;25.45;16.83;;;;;;;17.98;78.22;101012.09;20572815;28;20093;-72
2021/07/16 22:27:24;;;;;;;24.83;16.48;;;;;;;17.78;79.52;101009.31;20571468;28;20516;-72
2021/07/16 22:37:26;;;;;;;27.42;18.08;;;;;;;17.81;78.97;101004.75;20571519;28;20085;-73
2021/07/16 22:47:27;;;;;;;28.13;17.60;;;;;;;17.60;79.27;101002.84;20557802;28;20101;-73
2021/07/16 22:57:29;;;;;;;22.70;16.23;;;;;;;17.45;79.89;100996.31;20588532;28;20055;-73
2021/07/16 23:07:31;;;;;;;28.98;18.95;;;;;;;17.55;79.30;100997.72;20586511;28;20057;-73
2021/07/16 23:17:33;;;;;;;25.85;17.80;;;;;;;17.38;79.93;100994.78;20587327;28;20079;-74
2021/07/16 23:27:35;;;;;;;28.35;18.13;;;;;;;17.19;80.93;100994.53;20586793;28;20050;-73
2021/07/16 23:37:38;;;;;;;28.80;18.70;;;;;;;17.27;80.48;101012.81;20583891;28;20047;-73
2021/07/16 23:47:40;;;;;;;30.83;19.33;;;;;;;17.34;80.64;101009.03;20584582;28;20047;-73
2021/07/16 23:57:41;;;;;;;32.00;20.08;;;;;;;17.34;80.52;101016.97;20584292;28;20133;-73
